Time;durP1;ratioP1;P1;durP2;ratioP2;P2;SDS_P1;SDS_P2;PMS_P1;PMS_P2;Temp;Humidity;BMP_temperature;BMP_pressure;BME280_temperature;BME280_humidity;BME280_pressure;Samples;Min_cycle;Max_cycle;Signal;HPM_P1;HPM_P2
2023/08/15 00:00:39;;;;;;;49.03;42.23;;;;;24.20;100132.00;;;;2075223;28;20607;-65
2023/08/15 00:01:40;;;;;;;45.67;40.07;;;;;24.20;100230.00;;;;2059405;28;20584;-65
2023/08/15 00:02:40;;;;;;;43.30;37.53;;;;;24.20;100231.00;;;;2074954;28;20276;-65
2023/08/15 00:03:40;;;;;;;43.57;38.87;;;;;24.20;100226.00;;;;2068623;28;20211;-65
2023/08/15 00:04:41;;;;;;;43.30;38.57;;;;;24.20;100224.00;;;;2068297;28;20218;-65
2023/08/15 00:05:43;;;;;;;43.03;38.23;;;;;24.20;100213.00;;;;2059838;28;20289;-65
2023/08/15 00:06:44;;;;;;;43.38;38.55;;;;;24.20;100221.00;;;;2053389;28;20313;-65
2023/08/15 00:07:44;;;;;;;44.10;38.67;;;;;24.20;100219.00;;;;2075517;28;20268;-65
2023/08/15 00:08:44;;;;;;;45.10;39.97;;;;;24.20;100218.00;;;;2072216;28;20218;-65
2023/08/15 00:09:45;;;;;;;44.40;39.60;;;;;24.20;100220.00;;;;2068674;28;20301;-65
2023/08/15 00:10:46;;;;;;;44.70;39.90;;;;;24.20;100217.00;;;;2075857;28;20213;-65
2023/08/15 00:11:46;;;;;;;42.17;37.63;;;;;24.20;100221.00;;;;2066089;28;20279;-65
2023/08/15 00:12:46;;;;;;;46.90;39.97;;;;;24.20;100215.00;;;;2070657;28;21192;-65
2023/08/15 00:13:47;;;;;;;48.20;41.10;;;;;24.20;100216.00;;;;2073339;28;20681;-69
2023/08/15 00:14:47;;;;;;;45.33;40.43;;;;;24.20;100212.00;;;;2075339;28;20218;-67
2023/08/15 00:15:47;;;;;;;44.60;38.77;;;;;24.20;100206.00;;;;2060906;28;20293;-65
2023/08/15 00:16:48;;;;;;;46.67;40.00;;;;;24.20;100212.00;;;;2066142;28;20225;-66
2023/08/15 00:17:48;;;;;;;43.23;37.70;;;;;24.20;100203.00;;;;2077675;28;20217;-65
2023/08/15 00:18:48;;;;;;;42.37;37.93;;;;;24.20;100203.00;;;;2074609;28;20347;-65
2023/08/15 00:19:49;;;;;;;45.30;38.90;;;;;24.20;100201.00;;;;2072266;28;20221;-65
2023/08/15 00:20:49;;;;;;;43.40;38.20;;;;;24.20;100193.00;;;;2075152;28;20285;-65
2023/08/15 00:21:49;;;;;;;38.97;34.73;;;;;24.20;100190.00;;;;2067318;28;20228;-65
2023/08/15 00:22:50;;;;;;;41.60;35.37;;;;;24.20;100218.00;;;;2077358;28;20626;-65
2023/08/15 00:23:51;;;;;;;42.87;38.17;;;;;24.20;100193.00;;;;2075963;28;20655;-65
2023/08/15 00:24:51;;;;;;;41.20;36.47;;;;;24.20;100191.00;;;;2074156;28;20621;-65
2023/08/15 00:25:51;;;;;;;42.57;36.30;;;;;24.20;100188.00;;;;2075679;28;20608;-65
2023/08/15 00:26:51;;;;;;;42.03;35.10;;;;;24.20;100198.00;;;;2068341;28;20229;-65
2023/08/15 00:27:52;;;;;;;42.90;35.33;;;;;24.20;100190.00;;;;2072103;28;20387;-65
2023/08/15 00:28:52;;;;;;;42.27;37.07;;;;;24.20;100192.00;;;;2078059;28;20232;-65
2023/08/15 00:29:52;;;;;;;42.10;37.50;;;;;24.20;100184.00;;;;2069554;28;20206;-65
2023/08/15 00:30:53;;;;;;;40.30;36.10;;;;;24.20;100187.00;;;;2076135;28;20309;-65
2023/08/15 00:31:53;;;;;;;40.40;36.00;;;;;24.20;100182.00;;;;2059518;28;20234;-66
2023/08/15 00:32:53;;;;;;;42.43;36.90;;;;;24.20;100190.00;;;;2076451;28;20217;-65
2023/08/15 00:33:54;;;;;;;42.10;37.40;;;;;24.20;100185.00;;;;2069058;28;20221;-65
2023/08/15 00:34:54;;;;;;;40.33;35.60;;;;;24.20;100177.00;;;;2074715;28;20217;-65
2023/08/15 00:35:55;;;;;;;38.23;34.10;;;;;24.20;100205.00;;;;2068599;28;20217;-65
2023/08/15 00:36:55;;;;;;;42.10;35.90;;;;;24.20;100176.00;;;;2067497;28;20697;-65
2023/08/15 00:37:55;;;;;;;41.03;35.87;;;;;24.20;100186.00;;;;2069318;28;20225;-65
2023/08/15 00:38:56;;;;;;;39.37;35.07;;;;;24.20;100184.00;;;;2061315;28;20210;-65
2023/08/15 00:39:56;;;;;;;40.57;36.27;;;;;24.20;100192.00;;;;2076011;28;20828;-65
2023/08/15 00:40:57;;;;;;;39.90;35.07;;;;;24.20;100187.00;;;;2078078;28;20213;-65
2023/08/15 00:41:57;;;;;;;40.67;35.67;;;;;24.20;100189.00;;;;2066390;28;20220;-65
2023/08/15 00:42:57;;;;;;;36.63;32.73;;;;;24.20;100187.00;;;;2071616;28;20214;-65
2023/08/15 00:43:58;;;;;;;39.67;35.60;;;;;24.20;100194.00;;;;2069768;28;20210;-65
2023/08/15 00:44:58;;;;;;;40.13;35.20;;;;;24.20;100198.00;;;;2067883;28;20396;-65
2023/08/15 00:45:59;;;;;;;35.43;31.63;;;;;24.20;100197.00;;;;2068877;28;20213;-65
2023/08/15 00:47:00;;;;;;;39.28;35.08;;;;;24.20;100204.00;;;;2063381;28;20308;-65
2023/08/15 00:48:00;;;;;;;39.97;34.30;;;;;24.20;100194.00;;;;2077462;28;20210;-65
2023/08/15 00:49:00;;;;;;;39.73;35.43;;;;;24.20;100194.00;;;;2075829;28;20710;-65
2023/08/15 00:50:01;;;;;;;40.23;35.17;;;;;24.20;100198.00;;;;2077388;28;20297;-65
2023/08/15 00:51:01;;;;;;;37.83;33.77;;;;;24.20;100190.00;;;;2061222;28;20211;-65
2023/08/15 00:52:02;;;;;;;36.37;31.67;;;;;24.20;100190.00;;;;2057620;28;20221;-65
2023/08/15 00:53:02;;;;;;;36.83;32.50;;;;;24.20;100189.00;;;;2061266;28;20215;-65
2023/08/15 00:54:03;;;;;;;38.00;33.90;;;;;24.20;100191.00;;;;2066502;28;20520;-65
2023/08/15 00:55:04;;;;;;;36.23;32.33;;;;;24.20;100194.00;;;;2068644;28;20218;-65
2023/08/15 00:56:04;;;;;;;38.20;34.10;;;;;24.20;100193.00;;;;2075075;28;20253;-66
2023/08/15 00:57:05;;;;;;;36.50;32.70;;;;;24.20;100192.00;;;;2057529;28;20226;-65
2023/08/15 00:58:05;;;;;;;36.90;32.90;;;;;24.10;100187.00;;;;2054900;28;20919;-65
2023/08/15 00:59:06;;;;;;;38.50;33.03;;;;;24.20;100178.00;;;;2076800;28;20280;-66
2023/08/15 01:00:07;;;;;;;37.13;33.13;;;;;24.10;100190.00;;;;2069181;28;20206;-65
2023/08/15 01:01:10;;;;;;;38.10;34.00;;;;;24.10;100183.00;;;;2067969;28;21031;-65
2023/08/15 01:02:10;;;;;;;36.78;32.78;;;;;24.20;100188.00;;;;2047362;28;20659;-66
2023/08/15 01:03:11;;;;;;;37.83;33.73;;;;;24.10;100199.00;;;;2053117;28;20298;-65
2023/08/15 01:04:11;;;;;;;35.47;31.67;;;;;24.20;100197.00;;;;2061142;28;20222;-65
2023/08/15 01:05:11;;;;;;;35.67;31.87;;;;;24.20;100189.00;;;;2060767;28;20309;-65
2023/08/15 01:06:12;;;;;;;36.27;31.93;;;;;24.10;100182.00;;;;2057483;28;20215;-65
2023/08/15 01:07:12;;;;;;;38.97;33.73;;;;;24.10;100181.00;;;;2040942;28;20358;-65
2023/08/15 01:08:13;;;;;;;35.40;31.70;;;;;24.10;100182.00;;;;2060961;28;20223;-66
2023/08/15 01:09:13;;;;;;;34.30;30.70;;;;;24.10;100153.00;;;;2065479;28;20269;-65
2023/08/15 01:10:14;;;;;;;36.00;32.17;;;;;24.10;100176.00;;;;2060722;28;20281;-66
2023/08/15 01:11:14;;;;;;;32.10;28.73;;;;;24.10;100177.00;;;;2075076;28;20332;-65
2023/08/15 01:12:32;;;;;;;33.00;29.40;;;;;24.10;100157.00;;;;2062547;28;20582;-66
2023/08/15 01:13:51;;;;;;;33.85;30.27;;;;;24.10;100184.00;;;;2066702;28;20249;-65
2023/08/15 01:14:54;;;;;;;33.42;29.80;;;;;24.10;100179.00;;;;2066211;28;20210;-66
2023/08/15 01:15:55;;;;;;;33.88;30.38;;;;;24.10;100170.00;;;;2069151;28;20217;-66
2023/08/15 01:16:55;;;;;;;34.43;30.07;;;;;24.10;100166.00;;;;2067342;28;20774;-65
2023/08/15 01:18:15;;;;;;;32.77;29.40;;;;;24.10;100146.00;;;;2077056;28;20209;-66
2023/08/15 01:19:37;;;;;;;33.78;30.08;;;;;24.10;100157.00;;;;2071932;28;20267;-65
2023/08/15 01:20:37;;;;;;;33.25;29.73;;;;;24.10;100150.00;;;;2055207;28;21089;-65
2023/08/15 01:21:39;;;;;;;35.13;31.30;;;;;24.10;100140.00;;;;2041004;28;20227;-65
2023/08/15 01:22:43;;;;;;;31.20;28.00;;;;;24.10;100144.00;;;;2064048;28;20222;-66
2023/08/15 01:23:43;;;;;;;33.58;30.02;;;;;24.10;100137.00;;;;2052056;28;20695;-65
2023/08/15 01:24:44;;;;;;;33.77;29.13;;;;;24.10;100123.00;;;;2052763;28;20220;-65
2023/08/15 01:25:44;;;;;;;34.13;30.40;;;;;24.10;100139.00;;;;2065803;28;20225;-65
2023/08/15 01:26:44;;;;;;;33.37;29.67;;;;;24.10;100143.00;;;;2067227;28;20291;-66
2023/08/15 01:27:45;;;;;;;33.00;29.40;;;;;24.10;100143.00;;;;2075925;28;20297;-66
2023/08/15 01:28:45;;;;;;;33.00;29.40;;;;;24.10;100145.00;;;;2069832;28;20229;-66
2023/08/15 01:29:46;;;;;;;33.60;29.90;;;;;24.10;100145.00;;;;2070883;28;20210;-66
2023/08/15 01:30:55;;;;;;;33.70;30.10;;;;;24.10;100148.00;;;;2067886;28;20722;-66
2023/08/15 01:32:01;;;;;;;31.17;27.88;;;;;24.10;100147.00;;;;2059407;28;20221;-66
2023/08/15 01:33:17;;;;;;;32.45;29.10;;;;;24.10;100150.00;;;;2076200;28;20212;-65
2023/08/15 01:34:23;;;;;;;33.75;30.15;;;;;24.10;100151.00;;;;2066727;28;20284;-68
2023/08/15 01:35:27;;;;;;;32.17;28.73;;;;;24.10;100142.00;;;;2054478;28;20687;-66
2023/08/15 01:36:32;;;;;;;31.27;27.55;;;;;24.10;100150.00;;;;2044334;28;20281;-66
2023/08/15 01:37:32;;;;;;;30.38;27.17;;;;;24.10;100147.00;;;;2064772;28;20651;-66
2023/08/15 01:38:41;;;;;;;31.47;28.20;;;;;24.10;100145.00;;;;2074205;28;20205;-66
2023/08/15 01:39:41;;;;;;;33.35;29.65;;;;;24.10;100141.00;;;;2073919;28;20233;-66
2023/08/15 01:40:42;;;;;;;32.50;28.97;;;;;24.10;100145.00;;;;2058719;28;20221;-65
2023/08/15 01:41:42;;;;;;;30.83;27.37;;;;;24.10;100140.00;;;;2050984;28;20245;-65
2023/08/15 01:42:42;;;;;;;32.03;28.33;;;;;24.10;100150.00;;;;2059607;28;20218;-66
2023/08/15 01:43:43;;;;;;;31.10;27.90;;;;;24.10;100149.00;;;;2052612;28;20215;-65
2023/08/15 01:44:43;;;;;;;31.10;27.80;;;;;24.10;100153.00;;;;2059928;28;20218;-65
2023/08/15 01:45:43;;;;;;;36.07;29.70;;;;;24.10;100145.00;;;;2061204;28;20892;-65
2023/08/15 01:46:46;;;;;;;30.27;27.00;;;;;24.10;100147.00;;;;2064600;28;20677;-65
2023/08/15 01:47:47;;;;;;;31.13;27.73;;;;;24.10;100137.00;;;;2085284;28;20296;-65
2023/08/15 01:48:47;;;;;;;30.30;27.10;;;;;24.10;100134.00;;;;2062962;28;20222;-65
2023/08/15 01:49:47;;;;;;;29.23;26.07;;;;;23.90;100139.00;;;;2076008;28;20247;-65
2023/08/15 01:50:47;;;;;;;29.53;26.37;;;;;24.10;100145.00;;;;2072399;28;20309;-66
2023/08/15 01:51:48;;;;;;;29.27;26.27;;;;;24.10;100150.00;;;;2065354;28;20222;-70
2023/08/15 01:52:48;;;;;;;30.30;26.83;;;;;24.10;100148.00;;;;2076719;28;20829;-66
2023/08/15 01:53:49;;;;;;;30.93;27.70;;;;;24.10;100188.00;;;;2073694;28;20288;-67
2023/08/15 01:54:49;;;;;;;28.20;25.13;;;;;24.10;100125.00;;;;2060717;28;21048;-66
2023/08/15 01:55:49;;;;;;;29.50;26.47;;;;;24.10;100140.00;;;;2057578;28;20599;-66
2023/08/15 01:56:50;;;;;;;29.40;26.10;;;;;24.10;100147.00;;;;2066327;28;20556;-66
2023/08/15 01:57:50;;;;;;;29.77;26.37;;;;;24.10;100151.00;;;;2076512;28;20216;-66
2023/08/15 01:58:50;;;;;;;30.50;25.90;;;;;24.10;100146.00;;;;2067529;28;20391;-66
2023/08/15 01:59:51;;;;;;;30.17;27.00;;;;;24.10;100160.00;;;;2077053;28;20275;-66
2023/08/15 02:00:51;;;;;;;28.67;25.47;;;;;24.10;100156.00;;;;2075858;28;20212;-66
2023/08/15 02:01:52;;;;;;;28.03;25.13;;;;;24.10;100154.00;;;;2050499;28;20270;-66
2023/08/15 02:02:52;;;;;;;28.87;25.90;;;;;24.10;100173.00;;;;2068409;28;20289;-66
2023/08/15 02:03:52;;;;;;;30.47;26.30;;;;;24.10;100155.00;;;;2060215;28;20241;-66
2023/08/15 02:04:53;;;;;;;29.53;26.20;;;;;24.10;100172.00;;;;2067596;28;20256;-66
2023/08/15 02:05:53;;;;;;;29.70;26.47;;;;;24.10;100165.00;;;;2059898;28;20214;-68
2023/08/15 02:06:54;;;;;;;29.07;26.03;;;;;24.10;100164.00;;;;2063073;28;20214;-66
2023/08/15 02:07:54;;;;;;;29.03;26.03;;;;;24.10;100164.00;;;;2068687;28;20217;-66
2023/08/15 02:08:54;;;;;;;27.40;24.47;;;;;24.10;100156.00;;;;2072446;28;20228;-66
2023/08/15 02:09:55;;;;;;;29.67;25.50;;;;;24.10;100169.00;;;;2076445;28;20588;-66
2023/08/15 02:10:55;;;;;;;27.60;24.60;;;;;24.10;100166.00;;;;2069527;28;20214;-66
2023/08/15 02:11:55;;;;;;;28.30;25.30;;;;;24.10;100176.00;;;;2066430;28;20265;-66
2023/08/15 02:12:56;;;;;;;27.93;24.67;;;;;24.10;100167.00;;;;2069320;28;20690;-66
2023/08/15 02:13:56;;;;;;;27.00;24.20;;;;;24.10;100169.00;;;;2075976;28;20220;-66
2023/08/15 02:14:57;;;;;;;27.97;24.97;;;;;24.10;100165.00;;;;2074151;28;20209;-66
2023/08/15 02:15:57;;;;;;;25.20;22.57;;;;;24.10;100148.00;;;;2061729;28;20233;-66
2023/08/15 02:16:57;;;;;;;25.30;22.70;;;;;24.10;100164.00;;;;2066594;28;20225;-66
2023/08/15 02:17:58;;;;;;;27.13;24.27;;;;;24.10;100173.00;;;;2068661;28;20210;-66
2023/08/15 02:18:58;;;;;;;27.40;24.50;;;;;24.10;100172.00;;;;2075295;28;20247;-66
2023/08/15 02:19:58;;;;;;;27.20;24.23;;;;;24.10;100171.00;;;;2069916;28;20236;-66
2023/08/15 02:20:59;;;;;;;29.53;26.30;;;;;24.10;100167.00;;;;2075451;28;20220;-66
2023/08/15 02:21:59;;;;;;;28.90;25.87;;;;;24.10;100188.00;;;;2058477;28;20313;-66
2023/08/15 02:22:59;;;;;;;27.53;24.63;;;;;24.10;100180.00;;;;2070198;28;20205;-66
2023/08/15 02:24:00;;;;;;;26.83;24.13;;;;;24.10;100187.00;;;;2067808;28;20210;-66
2023/08/15 02:25:00;;;;;;;27.00;24.23;;;;;24.10;100196.00;;;;2060890;28;20277;-66
2023/08/15 02:26:00;;;;;;;26.90;23.93;;;;;24.10;100189.00;;;;2074450;28;21033;-66
2023/08/15 02:27:01;;;;;;;27.93;25.03;;;;;24.10;100208.00;;;;2066444;28;20603;-66
2023/08/15 02:28:01;;;;;;;26.97;24.03;;;;;24.10;100185.00;;;;2074103;28;20300;-66
2023/08/15 02:29:03;;;;;;;28.17;24.73;;;;;24.10;100198.00;;;;2068576;28;20202;-66
2023/08/15 02:30:04;;;;;;;27.77;24.95;;;;;23.90;100203.00;;;;2061449;28;20210;-66
2023/08/15 02:31:05;;;;;;;25.60;22.95;;;;;24.10;100192.00;;;;2069735;28;20210;-66
2023/08/15 02:32:05;;;;;;;28.00;25.03;;;;;24.10;100195.00;;;;2066628;28;20225;-66
2023/08/15 02:33:06;;;;;;;26.97;24.10;;;;;24.10;100182.00;;;;2076613;28;20210;-66
2023/08/15 02:34:06;;;;;;;26.27;23.47;;;;;24.10;100193.00;;;;2075898;28;20300;-66
2023/08/15 02:35:07;;;;;;;27.33;23.90;;;;;24.10;100193.00;;;;2075355;28;20741;-66
2023/08/15 02:36:08;;;;;;;27.13;24.43;;;;;24.10;100190.00;;;;2072129;28;20214;-66
2023/08/15 02:37:08;;;;;;;26.90;24.00;;;;;24.10;100185.00;;;;2051847;28;20444;-66
2023/08/15 02:38:08;;;;;;;27.17;24.23;;;;;24.10;100172.00;;;;2075437;28;20760;-66
2023/08/15 02:39:09;;;;;;;25.23;22.57;;;;;24.10;100173.00;;;;2075506;28;20712;-66
2023/08/15 02:40:09;;;;;;;25.00;22.50;;;;;24.10;100080.00;;;;2067637;28;20742;-66
2023/08/15 02:41:10;;;;;;;27.70;24.67;;;;;24.10;100173.00;;;;2071692;28;20253;-66
2023/08/15 02:42:10;;;;;;;26.63;23.80;;;;;24.10;100176.00;;;;2064783;28;20240;-66
2023/08/15 02:43:10;;;;;;;26.70;23.90;;;;;24.10;100175.00;;;;2071332;28;20280;-66
2023/08/15 02:44:11;;;;;;;26.40;23.30;;;;;24.10;100169.00;;;;2076250;28;20315;-66
2023/08/15 02:45:11;;;;;;;27.73;24.93;;;;;24.10;100167.00;;;;2074284;28;20224;-66
2023/08/15 02:46:12;;;;;;;25.70;22.87;;;;;24.10;100169.00;;;;2066229;28;20218;-66
2023/08/15 02:47:12;;;;;;;26.07;23.13;;;;;24.10;100174.00;;;;2065156;28;20210;-66
2023/08/15 02:48:12;;;;;;;26.33;23.47;;;;;24.10;100187.00;;;;2077298;28;20308;-66
2023/08/15 02:49:12;;;;;;;25.43;22.83;;;;;24.10;100170.00;;;;2072009;28;20219;-66
2023/08/15 02:50:14;;;;;;;27.40;24.27;;;;;24.10;100172.00;;;;2070673;28;20210;-66
2023/08/15 02:51:14;;;;;;;25.60;22.83;;;;;24.10;100168.00;;;;2072218;28;20250;-66
2023/08/15 02:52:14;;;;;;;26.00;23.13;;;;;24.10;100165.00;;;;2066282;28;20213;-66
2023/08/15 02:53:15;;;;;;;25.33;22.73;;;;;24.10;100172.00;;;;2076106;28;20221;-66
2023/08/15 02:54:15;;;;;;;25.07;22.37;;;;;24.10;100178.00;;;;2062942;28;20688;-66
2023/08/15 02:55:16;;;;;;;25.57;22.83;;;;;24.10;100176.00;;;;2068146;28;20272;-66
2023/08/15 02:56:16;;;;;;;23.97;21.43;;;;;24.10;100165.00;;;;2071092;28;20279;-66
2023/08/15 02:57:16;;;;;;;24.50;21.93;;;;;24.10;100171.00;;;;2062223;28;20301;-66
2023/08/15 02:58:17;;;;;;;27.27;22.83;;;;;24.10;100169.00;;;;2076198;28;20217;-65
2023/08/15 02:59:18;;;;;;;24.93;21.80;;;;;24.10;100167.00;;;;2065375;28;20221;-66
2023/08/15 03:00:18;;;;;;;26.10;23.40;;;;;24.10;100181.00;;;;2062991;28;20304;-66
2023/08/15 03:01:18;;;;;;;25.23;22.13;;;;;24.10;100170.00;;;;2074174;28;20214;-66
2023/08/15 03:02:18;;;;;;;26.13;23.43;;;;;24.10;100168.00;;;;2062763;28;20214;-66
2023/08/15 03:03:19;;;;;;;27.07;24.23;;;;;24.10;100163.00;;;;2070546;28;21647;-67
2023/08/15 03:04:19;;;;;;;26.37;23.57;;;;;24.10;100155.00;;;;2071160;28;20217;-67
2023/08/15 03:05:20;;;;;;;22.93;20.50;;;;;24.10;100157.00;;;;2073213;28;20210;-67
2023/08/15 03:06:20;;;;;;;24.80;22.27;;;;;24.10;100149.00;;;;2071523;28;20221;-67
2023/08/15 03:07:20;;;;;;;24.57;21.90;;;;;24.10;100153.00;;;;2063356;28;20252;-67
2023/08/15 03:08:21;;;;;;;24.50;22.07;;;;;24.10;100149.00;;;;2069671;28;20871;-67
2023/08/15 03:09:21;;;;;;;26.00;23.30;;;;;24.10;100149.00;;;;2077310;28;20571;-67
2023/08/15 03:10:21;;;;;;;23.80;21.40;;;;;24.10;100158.00;;;;2074991;28;20209;-66
2023/08/15 03:11:22;;;;;;;23.90;21.53;;;;;24.10;100163.00;;;;2070544;28;20209;-67
2023/08/15 03:12:22;;;;;;;23.37;20.93;;;;;24.10;100169.00;;;;2067867;28;20214;-66
2023/08/15 03:13:22;;;;;;;23.47;20.93;;;;;24.10;100170.00;;;;2074944;28;20236;-67
2023/08/15 03:14:23;;;;;;;26.50;23.67;;;;;24.10;100167.00;;;;2072517;28;20205;-66
2023/08/15 03:15:23;;;;;;;24.00;21.50;;;;;24.10;100168.00;;;;2075956;28;20210;-66
2023/08/15 03:16:24;;;;;;;24.03;20.73;;;;;24.10;100170.00;;;;2066718;28;20209;-67
2023/08/15 03:17:24;;;;;;;21.97;19.67;;;;;24.10;100175.00;;;;2076325;28;20292;-67
2023/08/15 03:18:24;;;;;;;23.50;21.10;;;;;24.10;100172.00;;;;2076391;28;20202;-66
2023/08/15 03:19:25;;;;;;;24.10;21.70;;;;;24.10;100173.00;;;;2075787;28;20260;-66
2023/08/15 03:20:25;;;;;;;24.10;21.60;;;;;24.10;100168.00;;;;2076982;28;20352;-67
2023/08/15 03:21:26;;;;;;;24.83;22.30;;;;;24.10;100181.00;;;;2066870;28;20206;-67
2023/08/15 03:22:26;;;;;;;22.80;20.53;;;;;24.10;100165.00;;;;2075793;28;20678;-66
2023/08/15 03:23:26;;;;;;;23.67;21.17;;;;;24.10;100162.00;;;;2071355;28;20542;-67
2023/08/15 03:24:27;;;;;;;23.10;20.20;;;;;24.10;100162.00;;;;2061583;28;20213;-67
2023/08/15 03:25:27;;;;;;;22.50;20.30;;;;;24.10;100161.00;;;;2072029;28;21034;-66
2023/08/15 03:26:28;;;;;;;22.67;20.07;;;;;24.10;100088.00;;;;2064557;28;20706;-67
2023/08/15 03:27:29;;;;;;;22.67;20.27;;;;;24.10;100165.00;;;;2076722;28;21098;-67
2023/08/15 03:28:29;;;;;;;23.27;20.87;;;;;24.10;100157.00;;;;2064446;28;20450;-67
2023/08/15 03:29:30;;;;;;;23.60;21.00;;;;;24.10;100172.00;;;;2061454;28;20206;-67
2023/08/15 03:30:30;;;;;;;23.03;20.63;;;;;24.10;100181.00;;;;2072614;28;20283;-67
2023/08/15 03:31:30;;;;;;;23.00;20.60;;;;;24.10;100185.00;;;;2066329;28;20304;-67
2023/08/15 03:32:31;;;;;;;23.50;21.00;;;;;24.10;100189.00;;;;2076423;28;20205;-67
2023/08/15 03:33:32;;;;;;;23.20;20.80;;;;;24.10;100197.00;;;;2071595;28;20288;-67
2023/08/15 03:34:32;;;;;;;20.30;18.30;;;;;24.10;100198.00;;;;2066220;28;20213;-67
2023/08/15 03:35:33;;;;;;;21.43;19.23;;;;;24.10;100193.00;;;;2063234;28;20458;-66
2023/08/15 03:36:33;;;;;;;22.63;19.97;;;;;24.10;100186.00;;;;2063561;28;20205;-67
2023/08/15 03:37:35;;;;;;;22.07;19.80;;;;;24.10;100191.00;;;;2063361;28;20285;-67
2023/08/15 03:38:35;;;;;;;23.92;20.50;;;;;24.10;100183.00;;;;2072591;28;20244;-67
2023/08/15 03:39:36;;;;;;;21.90;19.13;;;;;24.10;100183.00;;;;2076369;28;20202;-67
2023/08/15 03:40:36;;;;;;;22.90;20.50;;;;;24.10;100173.00;;;;2075318;28;20201;-67
2023/08/15 03:41:36;;;;;;;21.33;19.20;;;;;24.10;100170.00;;;;2066393;28;20228;-67
2023/08/15 03:42:37;;;;;;;22.00;19.80;;;;;24.10;100172.00;;;;2074037;28;20202;-66
2023/08/15 03:43:37;;;;;;;22.10;19.80;;;;;24.10;100170.00;;;;2075465;28;20715;-67
2023/08/15 03:44:37;;;;;;;20.90;18.70;;;;;24.10;100163.00;;;;2076229;28;20210;-66
2023/08/15 03:45:38;;;;;;;21.27;19.20;;;;;24.10;100169.00;;;;2064776;28;20293;-66
2023/08/15 03:46:40;;;;;;;22.40;20.07;;;;;24.10;100172.00;;;;2061969;28;20221;-66
2023/08/15 03:47:40;;;;;;;21.90;19.27;;;;;24.10;100169.00;;;;2069237;28;20214;-66
2023/08/15 03:48:41;;;;;;;21.80;19.60;;;;;24.10;100172.00;;;;2066407;28;20303;-66
2023/08/15 03:49:41;;;;;;;22.13;20.03;;;;;24.10;100169.00;;;;2063990;28;20695;-66
2023/08/15 03:50:41;;;;;;;21.20;18.90;;;;;24.10;100164.00;;;;2076483;28;20295;-66
2023/08/15 03:51:42;;;;;;;20.27;18.30;;;;;24.10;100153.00;;;;2069016;28;20224;-66
2023/08/15 03:52:42;;;;;;;20.53;18.50;;;;;24.10;100151.00;;;;2077740;28;20213;-66
2023/08/15 03:53:43;;;;;;;21.03;18.83;;;;;24.10;100153.00;;;;2077547;28;20572;-66
2023/08/15 03:54:43;;;;;;;21.60;19.37;;;;;24.10;100148.00;;;;2075585;28;21140;-66
2023/08/15 03:55:43;;;;;;;20.90;18.80;;;;;24.10;100145.00;;;;2068830;28;20706;-66
2023/08/15 03:56:44;;;;;;;20.70;18.60;;;;;24.10;100132.00;;;;2058799;28;20664;-66
2023/08/15 03:57:44;;;;;;;22.03;19.73;;;;;24.10;100127.00;;;;2067725;28;20633;-66
2023/08/15 03:58:44;;;;;;;22.40;20.10;;;;;24.10;100115.00;;;;2070029;28;20649;-66
2023/08/15 03:59:45;;;;;;;20.20;18.20;;;;;24.10;100114.00;;;;2075099;28;20629;-66
2023/08/15 04:00:45;;;;;;;19.40;17.50;;;;;24.10;100101.00;;;;2077747;28;20292;-66
2023/08/15 04:01:46;;;;;;;20.40;18.40;;;;;24.10;100100.00;;;;2062665;28;20264;-66
2023/08/15 04:02:46;;;;;;;21.60;19.30;;;;;24.10;100090.00;;;;2070549;28;20453;-66
2023/08/15 04:03:49;;;;;;;20.57;18.43;;;;;24.10;100080.00;;;;2070259;28;20218;-66
2023/08/15 04:04:49;;;;;;;21.20;18.90;;;;;24.10;100056.00;;;;2076861;28;20225;-72
2023/08/15 04:05:50;;;;;;;20.03;18.00;;;;;24.10;100081.00;;;;2068606;28;20210;-69
2023/08/15 04:06:50;;;;;;;19.23;17.30;;;;;24.10;100081.00;;;;2066118;28;20261;-67
2023/08/15 04:07:51;;;;;;;20.60;18.50;;;;;24.10;100087.00;;;;2077965;28;20216;-67
2023/08/15 04:08:51;;;;;;;21.17;18.97;;;;;24.10;100107.00;;;;2074399;28;20222;-66
2023/08/15 04:09:51;;;;;;;19.90;17.90;;;;;24.10;100118.00;;;;2076793;28;20289;-67
2023/08/15 04:10:52;;;;;;;19.13;17.00;;;;;24.10;100143.00;;;;2068455;28;20208;-67
2023/08/15 04:11:52;;;;;;;21.00;18.80;;;;;24.10;100156.00;;;;2062661;28;20233;-67
2023/08/15 04:12:52;;;;;;;18.47;16.67;;;;;24.10;100213.00;;;;2076763;28;20716;-67
2023/08/15 04:13:53;;;;;;;17.87;16.07;;;;;24.10;100176.00;;;;2076713;28;20733;-67
2023/08/15 04:14:53;;;;;;;18.83;16.93;;;;;24.10;100180.00;;;;2075786;28;20662;-66
2023/08/15 04:15:54;;;;;;;18.63;16.83;;;;;24.10;100191.00;;;;2075092;28;20942;-67
2023/08/15 04:16:54;;;;;;;19.73;17.73;;;;;24.10;100192.00;;;;2059695;28;20296;-67
2023/08/15 04:17:55;;;;;;;18.47;16.67;;;;;24.10;100217.00;;;;2068497;28;20207;-67
2023/08/15 04:18:55;;;;;;;18.67;16.53;;;;;24.10;100228.00;;;;2068518;28;20234;-67
2023/08/15 04:19:55;;;;;;;18.80;16.80;;;;;24.10;100230.00;;;;2077690;28;20206;-66
2023/08/15 04:20:56;;;;;;;18.53;16.27;;;;;24.10;100231.00;;;;2077476;28;20210;-66
2023/08/15 04:21:56;;;;;;;20.23;18.20;;;;;24.10;100228.00;;;;2060298;28;20226;-66
2023/08/15 04:22:57;;;;;;;18.00;16.27;;;;;24.10;100236.00;;;;2066321;28;21423;-66
2023/08/15 04:23:57;;;;;;;17.83;15.93;;;;;24.10;100228.00;;;;2076996;28;20267;-66
2023/08/15 04:24:57;;;;;;;19.87;17.77;;;;;24.10;100226.00;;;;2069858;28;20214;-66
2023/08/15 04:25:58;;;;;;;18.00;16.20;;;;;24.10;100224.00;;;;2076734;28;20217;-66
2023/08/15 04:26:59;;;;;;;18.20;16.30;;;;;24.10;100223.00;;;;2059406;28;20237;-66
2023/08/15 04:27:59;;;;;;;18.67;16.75;;;;;24.10;100236.00;;;;2065000;28;20246;-66
2023/08/15 04:29:00;;;;;;;17.63;15.83;;;;;24.10;100233.00;;;;2077420;28;20620;-66
2023/08/15 04:30:00;;;;;;;18.63;16.80;;;;;24.10;100235.00;;;;2068218;28;20250;-67
2023/08/15 04:31:01;;;;;;;18.47;16.67;;;;;24.10;100209.00;;;;2061386;28;20214;-66
2023/08/15 04:32:01;;;;;;;17.37;15.53;;;;;24.10;100244.00;;;;2059994;28;20309;-66
2023/08/15 04:33:01;;;;;;;17.93;16.03;;;;;24.10;100253.00;;;;2069180;28;20206;-66
2023/08/15 04:34:02;;;;;;;17.63;15.93;;;;;24.10;100258.00;;;;2068838;28;20214;-66
2023/08/15 04:35:02;;;;;;;18.37;16.47;;;;;24.10;100257.00;;;;2069917;28;20206;-66
2023/08/15 04:36:02;;;;;;;16.13;14.40;;;;;24.10;100267.00;;;;2077304;28;20340;-66
2023/08/15 04:37:03;;;;;;;17.87;16.07;;;;;24.10;100270.00;;;;2067580;28;20256;-66
2023/08/15 04:38:03;;;;;;;19.00;16.53;;;;;24.10;100278.00;;;;2077358;28;20301;-66
2023/08/15 04:39:04;;;;;;;15.77;14.27;;;;;24.10;100287.00;;;;2076469;28;20205;-66
2023/08/15 04:40:05;;;;;;;15.80;14.27;;;;;24.10;100286.00;;;;2070623;28;20246;-66
2023/08/15 04:41:05;;;;;;;17.08;15.35;;;;;24.10;100288.00;;;;2073894;28;20217;-66
2023/08/15 04:42:06;;;;;;;17.07;14.80;;;;;24.10;100283.00;;;;2066249;28;20228;-66
2023/08/15 04:43:07;;;;;;;16.70;15.10;;;;;24.10;100294.00;;;;2076915;28;20542;-66
2023/08/15 04:44:07;;;;;;;16.80;15.17;;;;;24.10;100287.00;;;;2065549;28;20329;-66
2023/08/15 04:45:08;;;;;;;17.07;15.27;;;;;24.10;100299.00;;;;2076315;28;20955;-66
2023/08/15 04:46:08;;;;;;;16.57;14.97;;;;;24.10;100315.00;;;;2067223;28;20214;-66
2023/08/15 04:47:09;;;;;;;17.43;15.63;;;;;24.10;100300.00;;;;2058487;28;20484;-66
2023/08/15 04:48:10;;;;;;;16.13;14.50;;;;;24.10;100296.00;;;;2070236;28;20436;-66
2023/08/15 04:49:10;;;;;;;17.60;15.80;;;;;24.10;100311.00;;;;2075786;28;20686;-66
2023/08/15 04:50:10;;;;;;;15.37;13.83;;;;;24.10;100309.00;;;;2077459;28;20533;-66
2023/08/15 04:51:11;;;;;;;17.37;15.67;;;;;24.10;100316.00;;;;2074887;28;20293;-66
2023/08/15 04:52:14;;;;;;;16.57;14.93;;;;;24.10;100313.00;;;;2067312;28;20626;-66
2023/08/15 04:53:14;;;;;;;16.45;14.77;;;;;24.00;100330.00;;;;2053725;28;20203;-66
2023/08/15 04:54:15;;;;;;;17.13;15.53;;;;;24.10;100314.00;;;;2062666;28;20206;-66